createdAt,value
2023-03-29T00:00:50.970Z,2.92
2023-03-29T00:01:51.006Z,3.10
2023-03-29T00:02:51.157Z,3.15
2023-03-29T00:03:51.171Z,3.07
2023-03-29T00:04:51.167Z,2.79
2023-03-29T00:05:51.204Z,3.25
2023-03-29T00:06:51.269Z,3.32
2023-03-29T00:07:51.305Z,3.12
2023-03-29T00:08:51.376Z,3.31
2023-03-29T00:09:51.433Z,3.19
2023-03-29T00:10:51.495Z,2.98
2023-03-29T00:11:51.539Z,3.05
2023-03-29T00:12:51.588Z,3.02
2023-03-29T00:13:51.623Z,3.00
2023-03-29T00:14:51.679Z,2.91
2023-03-29T00:15:51.774Z,2.93
2023-03-29T00:16:51.825Z,2.79
2023-03-29T00:17:51.865Z,3.12
2023-03-29T00:18:51.940Z,2.93
2023-03-29T00:19:51.990Z,2.80
2023-03-29T00:20:52.049Z,2.72
2023-03-29T00:21:52.076Z,2.61
2023-03-29T00:22:52.136Z,2.92
2023-03-29T00:23:52.213Z,2.43
2023-03-29T00:24:52.266Z,2.20
2023-03-29T00:25:52.357Z,2.62
2023-03-29T00:26:52.390Z,2.51
2023-03-29T00:27:52.452Z,2.56
2023-03-29T00:28:52.545Z,2.28
2023-03-29T00:29:52.578Z,2.42
2023-03-29T00:30:52.683Z,2.73
2023-03-29T00:31:52.836Z,2.63
2023-03-29T00:32:52.767Z,2.84
2023-03-29T00:33:52.788Z,2.67
2023-03-29T00:34:52.862Z,2.75
2023-03-29T00:35:52.925Z,2.56
2023-03-29T00:36:53.011Z,2.73
2023-03-29T00:37:53.068Z,2.71
2023-03-29T00:38:53.064Z,2.48
2023-03-29T00:39:53.126Z,2.56
2023-03-29T00:40:53.197Z,2.71
2023-03-29T00:41:53.266Z,2.96
2023-03-29T00:42:53.301Z,2.44
2023-03-29T00:43:53.362Z,2.55
2023-03-29T00:44:53.412Z,2.36
2023-03-29T00:45:53.600Z,2.67
2023-03-29T00:46:53.584Z,2.40
2023-03-29T00:47:53.626Z,2.40
2023-03-29T00:48:53.653Z,2.58
2023-03-29T00:49:53.722Z,2.54
2023-03-29T00:50:53.760Z,2.68
2023-03-29T00:51:53.838Z,2.58
2023-03-29T00:52:53.889Z,2.40
2023-03-29T00:53:53.947Z,2.63
2023-03-29T00:54:54.013Z,2.59
2023-03-29T00:55:54.078Z,2.70
2023-03-29T00:56:54.150Z,2.83
2023-03-29T00:57:54.180Z,2.58
2023-03-29T00:58:54.240Z,2.75
2023-03-29T00:59:54.293Z,2.86
2023-03-29T01:00:54.334Z,2.58
2023-03-29T01:01:54.797Z,2.76
2023-03-29T01:02:54.615Z,2.86
2023-03-29T01:03:54.726Z,2.93
2023-03-29T01:04:54.615Z,3.05
2023-03-29T01:05:54.634Z,3.17
2023-03-29T01:06:54.733Z,3.17
2023-03-29T01:07:54.737Z,3.11
2023-03-29T01:08:54.801Z,2.92
2023-03-29T01:09:54.874Z,2.86
2023-03-29T01:10:54.917Z,2.86
2023-03-29T01:11:54.967Z,2.65
2023-03-29T01:12:55.046Z,2.99
2023-03-29T01:13:55.093Z,2.64
2023-03-29T01:14:55.171Z,2.28
2023-03-29T01:15:55.260Z,2.59
2023-03-29T01:16:55.367Z,2.43
2023-03-29T01:17:55.450Z,2.52
2023-03-29T01:18:55.418Z,2.46
2023-03-29T01:19:55.467Z,2.43
2023-03-29T01:20:55.546Z,2.13
2023-03-29T01:21:55.608Z,2.43
2023-03-29T01:22:55.676Z,2.34
2023-03-29T01:23:55.734Z,2.41
2023-03-29T01:24:55.797Z,2.59
2023-03-29T01:25:55.855Z,2.49
2023-03-29T01:26:55.923Z,2.69
2023-03-29T01:27:55.980Z,2.61
2023-03-29T01:28:56.064Z,2.57
2023-03-29T01:29:56.113Z,2.79
2023-03-29T01:30:56.188Z,2.73
2023-03-29T01:31:56.278Z,2.35
2023-03-29T01:32:56.371Z,2.53
2023-03-29T01:33:56.345Z,2.37
2023-03-29T01:34:56.411Z,2.53
2023-03-29T01:35:56.515Z,2.54
2023-03-29T01:36:56.567Z,2.44
2023-03-29T01:37:56.611Z,2.60
2023-03-29T01:38:56.697Z,2.48
2023-03-29T01:39:56.740Z,2.10
2023-03-29T01:40:56.795Z,2.29
2023-03-29T01:41:56.845Z,2.08
2023-03-29T01:42:56.942Z,2.23
2023-03-29T01:43:57.001Z,2.33
2023-03-29T01:44:57.065Z,2.37
2023-03-29T01:45:57.127Z,2.09
2023-03-29T01:46:57.174Z,2.13
2023-03-29T01:47:57.263Z,2.30
2023-03-29T01:48:57.324Z,2.40
2023-03-29T01:49:57.374Z,2.38
2023-03-29T01:50:57.441Z,2.13
2023-03-29T01:51:57.499Z,2.00
2023-03-29T01:52:57.739Z,2.29
2023-03-29T01:53:57.625Z,2.17
2023-03-29T01:54:57.700Z,2.30
2023-03-29T01:55:57.758Z,2.41
2023-03-29T01:56:57.842Z,2.09
2023-03-29T01:57:57.886Z,2.18
2023-03-29T01:58:57.936Z,1.97
2023-03-29T01:59:58.019Z,2.24
2023-03-29T02:00:58.136Z,2.12
2023-03-29T02:01:58.202Z,2.26
2023-03-29T02:02:58.315Z,2.32
2023-03-29T02:03:58.275Z,2.34
2023-03-29T02:04:58.311Z,2.23
2023-03-29T02:05:58.374Z,2.15
2023-03-29T02:06:58.457Z,2.04
2023-03-29T02:07:58.524Z,1.96
2023-03-29T02:08:58.602Z,2.07
2023-03-29T02:09:58.648Z,1.96
2023-03-29T02:10:58.702Z,2.14
2023-03-29T02:11:58.753Z,2.31
2023-03-29T02:12:58.869Z,2.34
2023-03-29T02:13:58.895Z,1.98
2023-03-29T02:14:58.952Z,2.20
2023-03-29T02:15:59.114Z,2.16
2023-03-29T02:16:59.098Z,2.08
2023-03-29T02:17:59.160Z,2.18
2023-03-29T02:18:59.201Z,2.05
2023-03-29T02:19:59.279Z,1.77
2023-03-29T02:20:59.638Z,2.17
2023-03-29T02:21:59.398Z,2.06
2023-03-29T02:22:59.465Z,2.01
2023-03-29T02:23:59.521Z,1.93
2023-03-29T02:24:59.580Z,1.99
2023-03-29T02:25:59.653Z,2.02
2023-03-29T02:26:59.715Z,1.81
2023-03-29T02:27:59.760Z,2.10
2023-03-29T02:28:59.829Z,2.05
2023-03-29T02:29:59.911Z,2.13
2023-03-29T02:31:00.226Z,1.90
2023-03-29T02:32:00.037Z,2.09
2023-03-29T02:33:00.238Z,1.99
2023-03-29T02:34:00.153Z,1.94
2023-03-29T02:35:00.234Z,2.11
2023-03-29T02:36:00.308Z,2.19
2023-03-29T02:37:00.350Z,1.93
2023-03-29T02:38:00.410Z,2.02
2023-03-29T02:39:00.471Z,2.15
2023-03-29T02:40:00.526Z,2.22
2023-03-29T02:41:00.768Z,2.16
2023-03-29T02:42:00.677Z,2.28
2023-03-29T02:43:00.726Z,2.30
2023-03-29T02:44:00.785Z,2.01
2023-03-29T02:45:00.854Z,2.16
2023-03-29T02:46:00.901Z,2.12
2023-03-29T02:47:01.005Z,2.23
2023-03-29T02:48:01.096Z,2.32
2023-03-29T02:49:01.120Z,2.30
2023-03-29T02:50:01.183Z,2.43
2023-03-29T02:51:01.488Z,2.45
2023-03-29T02:52:01.300Z,2.46
2023-03-29T02:53:01.378Z,2.45
2023-03-29T02:54:01.422Z,2.22
2023-03-29T02:55:01.477Z,2.41
2023-03-29T02:56:01.536Z,2.53
2023-03-29T02:57:01.619Z,2.66
2023-03-29T02:58:01.685Z,2.65
2023-03-29T02:59:01.731Z,2.58
2023-03-29T03:00:01.789Z,2.57
2023-03-29T03:01:02.025Z,2.47
2023-03-29T03:02:02.028Z,2.46
2023-03-29T03:03:02.194Z,2.49
2023-03-29T03:04:02.096Z,2.75
2023-03-29T03:05:02.116Z,2.71
2023-03-29T03:06:02.166Z,2.62
2023-03-29T03:07:02.245Z,2.63
2023-03-29T03:08:02.311Z,2.49
2023-03-29T03:09:02.399Z,2.64
2023-03-29T03:10:02.454Z,2.61
2023-03-29T03:11:02.782Z,2.47
2023-03-29T03:12:02.575Z,2.68
2023-03-29T03:13:02.650Z,2.75
2023-03-29T03:14:02.698Z,2.69
2023-03-29T03:15:02.775Z,2.44
2023-03-29T03:16:02.881Z,2.73
2023-03-29T03:17:04.684Z,2.83
2023-03-29T03:18:02.999Z,2.74
2023-03-29T03:19:03.010Z,2.81
2023-03-29T03:20:03.082Z,2.87
2023-03-29T03:21:03.239Z,2.51
2023-03-29T03:22:03.227Z,2.47
2023-03-29T03:23:03.277Z,2.55
2023-03-29T03:24:03.325Z,2.66
2023-03-29T03:25:03.391Z,2.74
2023-03-29T03:26:03.440Z,2.57
2023-03-29T03:27:03.538Z,2.61
2023-03-29T03:28:03.572Z,2.65
2023-03-29T03:29:03.657Z,2.76
2023-03-29T03:30:03.725Z,2.75
2023-03-29T03:31:03.889Z,2.68
2023-03-29T03:32:03.965Z,2.78
2023-03-29T03:33:03.943Z,2.74
2023-03-29T03:34:03.975Z,2.62
2023-03-29T03:35:04.018Z,2.73
2023-03-29T03:36:04.125Z,2.57
2023-03-29T03:37:04.172Z,2.50
2023-03-29T03:38:04.256Z,2.58
2023-03-29T03:39:04.277Z,2.77
2023-03-29T03:40:04.352Z,2.52
2023-03-29T03:41:04.834Z,2.73
2023-03-29T03:42:07.239Z,2.47
2023-03-29T03:43:04.495Z,2.61
2023-03-29T03:44:04.493Z,2.61
2023-03-29T03:45:04.466Z,2.77
2023-03-29T03:46:04.492Z,2.66
2023-03-29T03:47:04.446Z,2.79
2023-03-29T03:48:04.446Z,2.74
2023-03-29T03:49:04.433Z,2.82
2023-03-29T03:50:04.422Z,2.78
2023-03-29T03:51:04.657Z,2.43
2023-03-29T03:52:04.440Z,2.34
2023-03-29T03:53:04.393Z,2.59
2023-03-29T03:54:04.383Z,2.22
2023-03-29T03:55:04.400Z,2.26
2023-03-29T03:56:04.385Z,2.52
2023-03-29T03:57:04.478Z,2.53
2023-03-29T03:58:04.376Z,2.55
2023-03-29T03:59:04.365Z,2.26
2023-03-29T04:00:04.356Z,2.05
2023-03-29T04:01:04.381Z,2.10
2023-03-29T04:02:04.406Z,2.17
2023-03-29T04:03:04.506Z,2.24
2023-03-29T04:04:04.431Z,2.22
2023-03-29T04:05:04.347Z,2.33
2023-03-29T04:06:04.336Z,2.69
2023-03-29T04:07:04.391Z,2.68
2023-03-29T04:08:04.441Z,2.47
2023-03-29T04:09:04.524Z,2.33
2023-03-29T04:10:04.646Z,2.58
2023-03-29T04:11:04.774Z,2.65
2023-03-29T04:12:04.721Z,2.63
2023-03-29T04:13:04.789Z,2.52
2023-03-29T04:14:04.840Z,2.53
2023-03-29T04:15:04.913Z,2.57
2023-03-29T04:16:05.063Z,2.51
2023-03-29T04:17:05.048Z,2.37
2023-03-29T04:18:05.270Z,2.58
2023-03-29T04:19:05.168Z,2.44
2023-03-29T04:20:05.223Z,2.54
2023-03-29T04:21:05.292Z,2.70
2023-03-29T04:22:05.351Z,2.72
2023-03-29T04:23:05.405Z,2.61
2023-03-29T04:24:05.476Z,2.61
2023-03-29T04:25:05.550Z,2.39
2023-03-29T04:26:05.595Z,2.32
2023-03-29T04:27:05.677Z,2.55
2023-03-29T04:28:05.733Z,2.26
2023-03-29T04:29:05.833Z,2.58
2023-03-29T04:30:05.859Z,2.50
2023-03-29T04:31:06.059Z,2.65
2023-03-29T04:32:05.994Z,2.38
2023-03-29T04:33:06.091Z,2.48
2023-03-29T04:34:06.114Z,2.25
2023-03-29T04:35:06.165Z,2.37
2023-03-29T04:36:06.266Z,2.21
2023-03-29T04:37:06.301Z,2.37
2023-03-29T04:38:06.374Z,2.37
2023-03-29T04:39:06.453Z,2.24
2023-03-29T04:40:06.516Z,2.27
2023-03-29T04:41:06.550Z,2.24
2023-03-29T04:42:06.616Z,2.42
2023-03-29T04:43:06.670Z,2.22
2023-03-29T04:44:06.800Z,2.34
2023-03-29T04:45:06.947Z,2.21
2023-03-29T04:46:06.967Z,2.30
2023-03-29T04:47:06.940Z,2.26
2023-03-29T04:48:07.056Z,2.26
2023-03-29T04:49:07.044Z,2.49
2023-03-29T04:50:07.127Z,2.57
2023-03-29T04:51:07.190Z,2.23
2023-03-29T04:52:07.251Z,2.43
2023-03-29T04:53:07.309Z,2.50
2023-03-29T04:54:07.391Z,2.47
2023-03-29T04:55:07.422Z,2.59
2023-03-29T04:56:07.500Z,2.81
2023-03-29T04:57:07.601Z,2.72
2023-03-29T04:58:07.616Z,2.66
2023-03-29T04:59:07.706Z,2.46
2023-03-29T05:00:07.753Z,2.34
2023-03-29T05:01:07.821Z,2.54
2023-03-29T05:02:07.978Z,2.48
2023-03-29T05:03:08.047Z,2.26
2023-03-29T05:04:08.560Z,2.34
2023-03-29T05:05:08.110Z,2.48
2023-03-29T05:06:08.174Z,2.61
2023-03-29T05:07:08.234Z,2.57
2023-03-29T05:08:08.290Z,2.43
2023-03-29T05:09:08.363Z,2.48
2023-03-29T05:10:08.435Z,2.66
2023-03-29T05:11:08.489Z,2.73
2023-03-29T05:12:08.557Z,2.70
2023-03-29T05:13:08.602Z,2.68
2023-03-29T05:14:08.681Z,2.87
2023-03-29T05:15:08.751Z,2.73
2023-03-29T05:16:08.858Z,2.75
2023-03-29T05:17:08.877Z,2.73
2023-03-29T05:18:08.995Z,2.92
2023-03-29T05:19:09.007Z,2.85
2023-03-29T05:20:09.065Z,2.77
2023-03-29T05:21:09.146Z,2.86
2023-03-29T05:22:09.198Z,2.76
2023-03-29T05:23:09.249Z,2.75
2023-03-29T05:24:09.325Z,2.93
2023-03-29T05:25:09.377Z,2.92
2023-03-29T05:26:09.439Z,2.95
2023-03-29T05:27:09.498Z,3.00
2023-03-29T05:28:09.577Z,2.48
2023-03-29T05:29:09.641Z,2.66
2023-03-29T05:30:09.854Z,3.20
2023-03-29T05:31:09.850Z,2.88
2023-03-29T05:32:09.855Z,3.26
2023-03-29T05:33:09.909Z,3.15
2023-03-29T05:34:09.938Z,3.77
2023-03-29T05:35:10.370Z,4.02
2023-03-29T05:36:10.075Z,4.05
2023-03-29T05:37:10.087Z,4.14
2023-03-29T05:38:10.132Z,4.38
2023-03-29T05:39:10.189Z,4.37
2023-03-29T05:40:10.495Z,4.56
2023-03-29T05:41:10.274Z,4.72
2023-03-29T05:42:10.305Z,4.82
2023-03-29T05:43:10.342Z,4.75
2023-03-29T05:44:10.365Z,4.46
2023-03-29T05:45:10.424Z,4.46
2023-03-29T05:46:10.498Z,4.64
2023-03-29T05:47:10.455Z,4.93
2023-03-29T05:48:10.527Z,5.53
2023-03-29T05:49:10.523Z,5.92
2023-03-29T05:50:10.595Z,6.22
2023-03-29T05:51:10.548Z,6.44
2023-03-29T05:52:10.585Z,6.92
2023-03-29T05:53:10.572Z,7.06
2023-03-29T05:54:10.596Z,6.91
2023-03-29T05:55:10.618Z,6.75
2023-03-29T05:56:10.612Z,6.92
2023-03-29T05:57:10.689Z,7.15
2023-03-29T05:58:10.647Z,7.15
2023-03-29T05:59:10.622Z,7.20
2023-03-29T06:00:10.629Z,7.50
2023-03-29T06:01:10.644Z,7.62
2023-03-29T06:02:10.790Z,7.96
2023-03-29T06:03:18.052Z,7.47
2023-03-29T06:04:11.717Z,7.50
2023-03-29T06:05:10.677Z,7.55
2023-03-29T06:06:10.621Z,7.73
2023-03-29T06:07:10.621Z,8.00
2023-03-29T06:08:10.620Z,8.49
2023-03-29T06:09:10.604Z,8.66
2023-03-29T06:10:10.595Z,8.63
2023-03-29T06:11:10.696Z,9.07
2023-03-29T06:12:10.573Z,9.22
2023-03-29T06:13:10.591Z,9.36
2023-03-29T06:14:10.582Z,9.12
2023-03-29T06:15:10.557Z,8.80
2023-03-29T06:16:10.565Z,9.29
2023-03-29T06:17:10.670Z,9.61
2023-03-29T06:18:10.594Z,9.42
2023-03-29T06:19:10.524Z,9.80
2023-03-29T06:20:10.520Z,9.82
2023-03-29T06:21:10.532Z,9.62
2023-03-29T06:22:11.344Z,9.78
2023-03-29T06:23:10.530Z,9.81
2023-03-29T06:24:10.527Z,10.14
2023-03-29T06:25:10.485Z,9.01
2023-03-29T06:26:10.501Z,9.14
2023-03-29T06:27:10.495Z,9.59
2023-03-29T06:28:10.480Z,8.20
2023-03-29T06:29:10.462Z,8.89
2023-03-29T06:30:10.463Z,9.72
2023-03-29T06:31:10.544Z,9.68
2023-03-29T06:32:10.888Z,8.85
2023-03-29T06:33:10.640Z,9.05
2023-03-29T06:34:10.536Z,9.19
2023-03-29T06:35:10.560Z,9.62
2023-03-29T06:36:10.601Z,9.97
2023-03-29T06:37:10.637Z,10.86
2023-03-29T06:38:10.685Z,11.34
2023-03-29T06:39:10.736Z,11.74
2023-03-29T06:40:10.769Z,11.94
2023-03-29T06:41:10.831Z,26.64
2023-03-29T06:42:20.765Z,32.79
2023-03-29T06:43:11.881Z,33.19
2023-03-29T06:44:10.867Z,36.22
2023-03-29T06:45:10.861Z,45.80
2023-03-29T06:46:10.941Z,41.19
2023-03-29T06:47:10.900Z,31.22
2023-03-29T06:48:11.428Z,23.62
2023-03-29T06:49:10.832Z,23.42
2023-03-29T06:50:10.806Z,23.55
2023-03-29T06:51:10.855Z,18.26
2023-03-29T06:52:11.432Z,15.89
2023-03-29T06:53:10.941Z,15.66
2023-03-29T06:54:10.963Z,14.77
2023-03-29T06:55:11.021Z,14.49
2023-03-29T06:56:11.043Z,11.89
2023-03-29T06:57:11.441Z,11.40
2023-03-29T06:58:11.406Z,11.42
2023-03-29T06:59:11.169Z,11.97
2023-03-29T07:00:11.207Z,10.96
2023-03-29T07:01:11.224Z,11.36
2023-03-29T07:02:11.327Z,11.28
2023-03-29T07:03:11.462Z,10.75
2023-03-29T07:04:11.395Z,9.76
2023-03-29T07:05:11.436Z,9.59
2023-03-29T07:06:11.446Z,9.70
2023-03-29T07:07:11.506Z,10.65
2023-03-29T07:08:11.888Z,11.04
2023-03-29T07:09:11.734Z,11.44
2023-03-29T07:10:11.691Z,11.49
2023-03-29T07:11:11.774Z,11.54
2023-03-29T07:12:11.833Z,11.48
2023-03-29T07:13:11.896Z,11.50
2023-03-29T07:14:11.999Z,11.47
2023-03-29T07:15:12.010Z,11.39
2023-03-29T07:16:12.124Z,9.91
2023-03-29T07:17:12.130Z,9.45
2023-03-29T07:18:12.191Z,10.14
2023-03-29T07:19:12.266Z,10.41
2023-03-29T07:20:12.331Z,10.42
2023-03-29T07:21:12.410Z,10.31
2023-03-29T07:22:12.460Z,10.19
2023-03-29T07:23:12.509Z,9.51
2023-03-29T07:24:12.574Z,9.11
2023-03-29T07:25:12.643Z,9.59
2023-03-29T07:26:12.700Z,9.83
2023-03-29T07:27:12.913Z,11.45
2023-03-29T07:28:12.911Z,11.24
2023-03-29T07:29:12.869Z,9.81
2023-03-29T07:30:12.908Z,9.39
2023-03-29T07:31:12.950Z,9.66
2023-03-29T07:32:13.030Z,9.77
2023-03-29T07:33:13.559Z,9.43
2023-03-29T07:34:13.133Z,9.39
2023-03-29T07:35:13.226Z,9.64
2023-03-29T07:36:13.322Z,9.65
2023-03-29T07:37:13.434Z,9.45
2023-03-29T07:38:13.386Z,9.16
2023-03-29T07:39:13.449Z,9.36
2023-03-29T07:40:13.514Z,9.19
2023-03-29T07:41:13.510Z,8.97
2023-03-29T07:42:13.562Z,9.01
2023-03-29T07:43:13.644Z,8.82
2023-03-29T07:44:13.708Z,8.74
2023-03-29T07:45:13.747Z,8.72
2023-03-29T07:46:13.796Z,8.56
2023-03-29T07:47:13.806Z,8.44
2023-03-29T07:48:13.900Z,8.50
2023-03-29T07:49:13.894Z,8.24
2023-03-29T07:50:14.413Z,8.25
2023-03-29T07:51:13.989Z,8.20
2023-03-29T07:52:14.126Z,8.17
2023-03-29T07:53:14.059Z,8.54
2023-03-29T07:54:14.114Z,9.79
2023-03-29T07:55:14.397Z,9.44
2023-03-29T07:56:14.187Z,9.41
2023-03-29T07:57:14.282Z,9.50
2023-03-29T07:58:14.275Z,9.25
2023-03-29T07:59:14.312Z,9.29
2023-03-29T08:00:14.411Z,9.44
2023-03-29T08:01:17.171Z,9.60
2023-03-29T08:02:14.373Z,9.61
2023-03-29T08:03:14.434Z,9.63
2023-03-29T08:04:14.466Z,9.58
2023-03-29T08:05:14.452Z,9.26
2023-03-29T08:06:14.367Z,8.62
2023-03-29T08:07:15.758Z,9.16
2023-03-29T08:08:14.573Z,8.17
2023-03-29T08:09:14.582Z,8.06
2023-03-29T08:10:14.653Z,8.33
2023-03-29T08:11:14.654Z,8.49
2023-03-29T08:12:14.707Z,8.72
2023-03-29T08:13:14.733Z,8.69
2023-03-29T08:14:14.771Z,8.66
2023-03-29T08:15:14.962Z,8.35
2023-03-29T08:16:14.883Z,8.61
2023-03-29T08:17:14.875Z,8.78
2023-03-29T08:18:14.986Z,8.56
2023-03-29T08:19:14.985Z,8.10
2023-03-29T08:20:15.471Z,7.93
2023-03-29T08:21:15.038Z,6.22
2023-03-29T08:22:15.106Z,6.57
2023-03-29T08:23:15.146Z,6.79
2023-03-29T08:24:15.225Z,7.03
2023-03-29T08:25:15.420Z,6.96
2023-03-29T08:26:15.280Z,7.01
2023-03-29T08:27:15.342Z,7.62
2023-03-29T08:28:15.420Z,7.77
2023-03-29T08:29:15.439Z,7.54
2023-03-29T08:30:15.500Z,7.99
2023-03-29T08:31:15.551Z,8.05
2023-03-29T08:32:15.543Z,8.15
2023-03-29T08:33:15.657Z,2.14
2023-03-29T08:34:15.596Z,1.55
2023-03-29T08:35:15.612Z,2.37
2023-03-29T08:36:15.684Z,2.59
2023-03-29T08:37:15.694Z,2.99
2023-03-29T08:38:15.940Z,3.32
2023-03-29T08:39:16.816Z,3.99
2023-03-29T08:40:15.745Z,4.41
2023-03-29T08:41:15.729Z,4.16
2023-03-29T08:42:15.733Z,4.26
2023-03-29T08:43:15.949Z,4.14
2023-03-29T08:44:15.764Z,4.52
2023-03-29T08:45:15.785Z,4.83
2023-03-29T08:46:15.864Z,4.92
2023-03-29T08:47:15.833Z,4.94
2023-03-29T08:48:15.864Z,4.69
2023-03-29T08:49:15.932Z,5.05
2023-03-29T08:50:15.989Z,5.23
2023-03-29T08:51:16.059Z,5.13
2023-03-29T08:52:16.105Z,5.10
2023-03-29T08:53:16.168Z,5.50
2023-03-29T08:54:16.227Z,5.70
2023-03-29T08:55:16.254Z,5.87
2023-03-29T08:56:16.297Z,5.68
2023-03-29T08:57:16.403Z,5.70
2023-03-29T08:58:16.390Z,5.77
2023-03-29T08:59:16.428Z,5.91
2023-03-29T09:00:16.482Z,5.98
2023-03-29T09:01:16.549Z,5.79
2023-03-29T09:02:16.680Z,5.75
2023-03-29T09:03:16.746Z,5.84
2023-03-29T09:04:16.632Z,5.68
2023-03-29T09:05:16.671Z,5.65
2023-03-29T09:06:16.722Z,5.82
2023-03-29T09:07:16.776Z,5.85
2023-03-29T09:08:16.823Z,5.58
2023-03-29T09:09:16.831Z,5.53
2023-03-29T09:10:16.847Z,5.67
2023-03-29T09:11:16.860Z,5.90
2023-03-29T09:12:16.890Z,5.83
2023-03-29T09:13:17.028Z,5.77
2023-03-29T09:14:16.934Z,5.76
2023-03-29T09:15:16.943Z,5.32
2023-03-29T09:16:17.006Z,5.25
2023-03-29T09:17:16.994Z,5.43
2023-03-29T09:18:17.541Z,5.30
2023-03-29T09:19:17.030Z,5.17
2023-03-29T09:20:17.027Z,5.51
2023-03-29T09:21:17.075Z,5.42
2023-03-29T09:22:17.057Z,5.77
2023-03-29T09:23:17.434Z,7.17
2023-03-29T09:24:17.116Z,7.54
2023-03-29T09:25:17.122Z,6.45
2023-03-29T09:26:17.133Z,5.82
2023-03-29T09:27:17.146Z,5.58
2023-03-29T09:28:17.440Z,5.22
2023-03-29T09:29:17.181Z,5.16
2023-03-29T09:30:17.211Z,4.96
2023-03-29T09:31:17.268Z,4.75
2023-03-29T09:32:17.272Z,5.27
2023-03-29T09:33:17.444Z,5.34
2023-03-29T09:34:17.291Z,5.47
2023-03-29T09:35:17.321Z,5.56
2023-03-29T09:36:17.381Z,5.77
2023-03-29T09:37:17.362Z,5.78
2023-03-29T09:38:17.384Z,5.89
2023-03-29T09:39:17.409Z,5.78
2023-03-29T09:40:17.502Z,5.90
2023-03-29T09:41:17.442Z,5.93
2023-03-29T09:42:17.478Z,5.93
2023-03-29T09:43:17.512Z,5.70
2023-03-29T09:44:29.835Z,5.74
2023-03-29T09:45:18.530Z,5.74
2023-03-29T09:46:17.607Z,5.75
2023-03-29T09:47:17.525Z,5.76
2023-03-29T09:48:17.977Z,5.61
2023-03-29T09:49:17.612Z,5.47
2023-03-29T09:50:30.263Z,5.45
2023-03-29T09:51:18.498Z,5.45
2023-03-29T09:52:17.473Z,5.34
2023-03-29T09:53:17.472Z,5.23
2023-03-29T09:54:17.496Z,4.93
2023-03-29T09:55:17.480Z,4.87
2023-03-29T09:56:17.476Z,4.71
2023-03-29T09:57:17.514Z,4.58
2023-03-29T09:58:17.519Z,4.55
2023-03-29T09:59:17.484Z,4.42
2023-03-29T10:00:17.448Z,4.31
2023-03-29T10:01:17.530Z,4.32
2023-03-29T10:02:17.434Z,4.23
2023-03-29T10:03:17.414Z,4.22
2023-03-29T10:04:17.538Z,4.25
2023-03-29T10:05:17.454Z,4.33
2023-03-29T10:06:17.520Z,4.23
2023-03-29T10:07:17.528Z,4.01
2023-03-29T10:08:19.445Z,3.99
2023-03-29T10:09:17.981Z,3.97
2023-03-29T10:10:17.661Z,4.17
2023-03-29T10:11:17.695Z,4.06
2023-03-29T10:12:17.743Z,3.99
2023-03-29T10:13:17.776Z,3.92
2023-03-29T10:14:17.825Z,3.99
2023-03-29T10:15:29.186Z,3.93
2023-03-29T10:16:18.866Z,3.94
2023-03-29T10:17:17.851Z,3.93
2023-03-29T10:18:17.841Z,3.81
2023-03-29T10:19:17.962Z,3.76
2023-03-29T10:20:17.846Z,3.88
2023-03-29T10:21:17.836Z,3.32
2023-03-29T10:22:17.798Z,3.38
2023-03-29T10:23:17.807Z,3.49
2023-03-29T10:24:17.822Z,3.48
2023-03-29T10:25:17.806Z,1.73
2023-03-29T10:26:17.781Z,0.90
2023-03-29T10:27:17.789Z,0.54
2023-03-29T10:28:17.756Z,0.39
2023-03-29T10:29:17.764Z,0.47
2023-03-29T10:30:17.811Z,0.34
2023-03-29T10:31:17.988Z,0.48
2023-03-29T10:32:17.930Z,0.44
2023-03-29T10:33:17.911Z,0.45
2023-03-29T10:34:17.926Z,0.46
2023-03-29T10:35:17.950Z,0.51
2023-03-29T10:36:18.033Z,0.69
2023-03-29T10:37:18.034Z,0.84
2023-03-29T10:38:18.061Z,1.06
2023-03-29T10:39:18.085Z,1.30
2023-03-29T10:40:18.476Z,1.50
2023-03-29T10:41:18.091Z,1.79
2023-03-29T10:42:18.109Z,2.15
2023-03-29T10:43:18.155Z,2.12
2023-03-29T10:44:18.229Z,2.54
2023-03-29T10:45:18.288Z,2.35
2023-03-29T10:46:18.384Z,2.71
2023-03-29T10:47:18.358Z,2.85
2023-03-29T10:48:18.378Z,3.44
2023-03-29T10:49:18.409Z,3.07
2023-03-29T10:50:18.425Z,3.61
2023-03-29T10:51:18.451Z,3.29
2023-03-29T10:52:18.454Z,4.78
2023-03-29T10:53:18.469Z,6.08
2023-03-29T10:54:18.448Z,6.57
2023-03-29T10:55:18.473Z,4.04
2023-03-29T10:56:18.460Z,2.57
2023-03-29T10:57:19.434Z,2.73
2023-03-29T10:58:18.466Z,2.74
2023-03-29T10:59:18.459Z,2.44
2023-03-29T11:00:18.522Z,3.26
2023-03-29T11:01:18.496Z,4.39
2023-03-29T11:02:18.478Z,5.93
2023-03-29T11:03:20.970Z,6.09
2023-03-29T11:04:18.456Z,6.03
2023-03-29T11:05:18.453Z,5.59
2023-03-29T11:06:18.429Z,6.59
2023-03-29T11:07:18.423Z,6.95
2023-03-29T11:08:18.412Z,7.47
2023-03-29T11:09:18.411Z,7.98
2023-03-29T11:10:18.413Z,7.46
2023-03-29T11:11:18.406Z,8.71
2023-03-29T11:12:18.411Z,9.18
2023-03-29T11:13:18.407Z,9.55
2023-03-29T11:14:18.434Z,7.38
2023-03-29T11:15:18.494Z,6.06
2023-03-29T11:16:18.420Z,4.07
2023-03-29T11:17:18.363Z,7.31
2023-03-29T11:18:18.348Z,7.97
2023-03-29T11:19:18.359Z,5.63
2023-03-29T11:20:18.365Z,7.28
2023-03-29T11:21:18.333Z,8.24
2023-03-29T11:22:18.312Z,9.78
2023-03-29T11:23:18.330Z,5.48
2023-03-29T11:24:18.315Z,3.07
2023-03-29T11:25:18.369Z,2.66
2023-03-29T11:26:18.303Z,2.20
2023-03-29T11:27:18.293Z,1.89
2023-03-29T11:28:18.285Z,1.58
2023-03-29T11:29:18.267Z,1.60
2023-03-29T11:30:18.283Z,2.02
2023-03-29T11:31:18.354Z,2.13
2023-03-29T11:32:18.274Z,2.40
2023-03-29T11:33:18.251Z,2.91
2023-03-29T11:34:18.241Z,3.19
2023-03-29T11:35:18.249Z,4.42
2023-03-29T11:36:18.326Z,4.99
2023-03-29T11:37:18.234Z,5.98
2023-03-29T11:38:18.209Z,4.93
2023-03-29T11:39:18.201Z,4.56
2023-03-29T11:40:18.194Z,5.48
2023-03-29T11:41:18.197Z,5.67
2023-03-29T11:42:18.184Z,5.86
2023-03-29T11:43:18.182Z,6.16
2023-03-29T11:44:18.171Z,6.19
2023-03-29T11:45:18.173Z,6.33
2023-03-29T11:46:18.200Z,6.39
2023-03-29T11:47:18.155Z,6.45
2023-03-29T11:48:18.147Z,6.30
2023-03-29T11:49:18.139Z,6.35
2023-03-29T11:50:18.153Z,6.37
2023-03-29T11:51:18.116Z,6.62
2023-03-29T11:52:18.126Z,6.55
2023-03-29T11:53:18.109Z,6.45
2023-03-29T11:54:18.109Z,6.51
2023-03-29T11:55:18.101Z,6.57
2023-03-29T11:56:18.519Z,6.55
2023-03-29T11:57:18.519Z,6.34
2023-03-29T11:58:18.080Z,6.38
2023-03-29T11:59:18.056Z,6.23
2023-03-29T12:00:18.075Z,6.23
2023-03-29T12:01:18.126Z,5.37
2023-03-29T12:02:18.553Z,4.49
2023-03-29T12:03:18.631Z,5.47
2023-03-29T12:04:18.327Z,6.35
2023-03-29T12:05:18.361Z,6.49
2023-03-29T12:06:18.436Z,6.78
2023-03-29T12:07:18.503Z,6.29
2023-03-29T12:08:19.011Z,6.57
2023-03-29T12:09:18.622Z,7.35
2023-03-29T12:10:18.676Z,7.97
2023-03-29T12:11:18.712Z,8.01
2023-03-29T12:12:18.785Z,8.26
2023-03-29T12:13:19.009Z,8.80
2023-03-29T12:14:18.867Z,9.44
2023-03-29T12:15:18.910Z,9.72
2023-03-29T12:16:19.009Z,9.30
2023-03-29T12:17:19.028Z,11.12
2023-03-29T12:18:19.033Z,12.46
2023-03-29T12:19:19.076Z,12.53
2023-03-29T12:20:19.104Z,11.91
2023-03-29T12:21:19.136Z,13.53
2023-03-29T12:22:19.150Z,13.47
2023-03-29T12:23:19.204Z,12.65
2023-03-29T12:24:19.235Z,11.69
2023-03-29T12:25:21.316Z,12.42
2023-03-29T12:26:19.263Z,12.05
2023-03-29T12:27:19.246Z,7.24
2023-03-29T12:28:19.254Z,6.28
2023-03-29T12:29:19.218Z,4.80
2023-03-29T12:30:19.247Z,3.56
2023-03-29T12:31:19.270Z,2.78
2023-03-29T12:32:19.228Z,2.67
2023-03-29T12:33:19.233Z,2.35
2023-03-29T12:34:19.191Z,1.36
2023-03-29T12:35:19.193Z,1.06
2023-03-29T12:36:19.211Z,1.16
2023-03-29T12:37:19.192Z,1.10
2023-03-29T12:38:19.155Z,1.01
2023-03-29T12:39:19.146Z,0.87
2023-03-29T12:40:19.155Z,0.80
2023-03-29T12:41:19.282Z,1.11
2023-03-29T12:42:19.122Z,1.25
2023-03-29T12:43:19.160Z,1.37
2023-03-29T12:44:19.130Z,1.61
2023-03-29T12:45:19.155Z,1.80
2023-03-29T12:46:19.136Z,1.95
2023-03-29T12:47:19.105Z,2.18
2023-03-29T12:48:19.100Z,2.65
2023-03-29T12:49:21.116Z,2.85
2023-03-29T12:50:19.107Z,4.72
2023-03-29T12:51:19.071Z,3.64
2023-03-29T12:52:19.082Z,4.69
2023-03-29T12:53:19.087Z,5.37
2023-03-29T12:54:19.072Z,5.50
2023-03-29T12:55:19.069Z,5.90
2023-03-29T12:56:19.040Z,4.22
2023-03-29T12:57:19.105Z,5.60
2023-03-29T12:58:19.018Z,3.64
2023-03-29T12:59:19.009Z,4.05
2023-03-29T13:00:19.031Z,3.78
2023-03-29T13:01:19.168Z,2.66
2023-03-29T13:02:19.028Z,2.06
2023-03-29T13:03:19.016Z,1.77
2023-03-29T13:04:18.995Z,1.14
2023-03-29T13:05:19.003Z,1.14
2023-03-29T13:06:19.001Z,1.19
2023-03-29T13:07:19.026Z,1.33
2023-03-29T13:08:19.094Z,1.79
2023-03-29T13:09:19.119Z,2.16
2023-03-29T13:10:19.110Z,2.76
2023-03-29T13:11:19.148Z,3.84
2023-03-29T13:12:19.159Z,4.04
2023-03-29T13:13:19.178Z,4.52
2023-03-29T13:14:19.176Z,7.08
2023-03-29T13:15:19.223Z,8.04
2023-03-29T13:16:19.217Z,8.02
2023-03-29T13:17:19.413Z,7.26